Create Custom Reports and Graphics: Custom Report

AM-Scott Top 8120'

Current Conditions

10/19/21 2:45 AM (-07:00)
Updated Every 15 Minutes
Temp 31.0 °F   9.9
RH 82 %   13
Wet Bulb 28.9 °F   8.3
Dew Pt 26.0 °F   6.3
Wind Spd 1.6 mph   8.7
Wind Dir SE | 124 °
Wind Gust 5.3 mph   16.4
Daily Min Temp 29.3 °F   8.9
Daily Max Temp 31.7 °F   9.2

Last 6 Hours

AM-Scott Top 8120'

15 Minute Data | America/Los_Angeles
as of 10/19/21 2:53 AM PDT
Date & Time Temp (°F) RH (%) Dew Pt (°F) Wet Bulb (°F) Wind Dir (°) Wind Spd (mph) Wind Gust (mph) WindChill (°F) Daily Min Temp (°F) Daily Max Temp (°F)
10/19/21 - 0245 31.0 82 26.0 28.9 SE | 124 1.6 5.3 31.0 29.3 31.7
10/19/21 - 0230 31.6 80 26.1 29.3 SE | 140 6.5 11.1 27.9 29.3 31.7
10/19/21 - 0215 31.1 82 26.4 29.1 SE | 144 7.8 12.6 23.7 29.3 31.1
10/19/21 - 0200 30.9 83 26.5 29.0 SSE | 147 10.1 14.3 21.9 29.3 31.1
10/19/21 - 0145 30.7 85 26.7 29.0 SE | 140 6.1 11.6 22.0 29.3 30.8
10/19/21 - 0130 30.3 87 26.8 28.8 SE | 132 4.0 9.7 22.3 29.3 30.4
10/19/21 - 0115 30.3 88 27.2 28.9 SE | 127 2.9 8.8 30.3 29.3 30.4
10/19/21 - 0100 30.1 89 27.2 28.9 ESE | 117 1.2 5.3 30.1 29.3 30.3
10/19/21 - 0045 30.2 89 27.4 29.0 SE | 126 2.9 8.3 30.2 29.3 30.3
10/19/21 - 0030 30.0 91 27.7 29.0 SE | 129 2.8 6.2 30.0 29.3 30.1
10/19/21 - 0015 29.9 92 27.9 29.1 SE | 135 5.6 9.9 29.9 29.3 30.0
10/19/21 - 0000 29.3 94 27.8 28.7 SE | 129 3.2 7.8 29.3 20.3 31.6
10/18/21 - 2345 29.5 94 28.0 28.9 SE | 128 4.5 10.5 29.5 20.3 31.6
10/18/21 - 2330 29.4 94 27.9 28.7 SE | 132 5.7 12.2 21.9 20.3 31.6
10/18/21 - 2315 29.3 95 28.0 28.7 SE | 132 4.9 12.3 24.1 20.3 31.6
10/18/21 - 2300 29.3 95 28.2 28.9 SE | 145 8.4 13.4 21.6 20.3 31.6
10/18/21 - 2245 29.0 95 27.8 28.5 SE | 132 4.3 9.8 23.2 20.3 31.6
10/18/21 - 2230 29.1 95 27.8 28.6 ESE | 118 4.6 13.1 25.2 20.3 31.6
10/18/21 - 2215 29.0 96 27.9 28.5 SE | 127 2.5 8.7 29.0 20.3 31.6
10/18/21 - 2200 28.7 96 27.7 28.2 ESE | 115 4.8 14.4 24.1 20.3 31.6
10/18/21 - 2145 28.5 96 27.4 28.1 E | 88 7.4 11.7 20.5 20.3 31.6
10/18/21 - 2130 28.5 95 27.4 28.1 ENE | 77 6.1 11.8 22.5 20.3 31.6
10/18/21 - 2115 28.1 95 26.9 27.6 NE | 55 5.4 8.8 21.9 20.3 31.6
10/18/21 - 2100 27.9 95 26.7 27.4 NE | 48 4.5 8.5 22.8 20.3 31.6
Max 31.6 96 28.2 29.3 - 10.1 14.4 31.0 29.3 31.7
Avg 29.7 91 27.3 28.7 - 4.9 10.2 25.6 - -
Min 27.9 80 26.0 27.4 - 1.2 5.3 20.5 20.3 30.0

Last 30 Days

AM-Scott Top 8120'

Daily Data | America/Los_Angeles
as of 10/19/21 2:53 AM PDT
Date Daily Max Temp (°F) Time of Max Temp Daily Min Temp (°F) Time of Min Temp Wind Spd (mph) Wind Gust (mph) Wind Gst Dir (°) Wind Gst Time Wet Bulb (°F) WetB Hrs <28F (hrs) Max RH (%) Min RH (%) Bat Volt Min Day (V)
10/18/21 31.6 1513 20.3 0146 9.1 40.1 SSW | 196 0415 24.5 19.1 96 91 11.3
10/17/21 46.0 1347 22.3 0001 19.2 47.5 SSW | 213 1305 30.9 1.7 95 23 11.4
10/16/21 63.5 1250 42.4 2321 5.4 18.5 SSW | 194 1543 36.7 0.0 50 18 11.4
10/15/21 63.8 1521 40.3 0001 3.8 11.4 E | 98 2226 35.9 0.0 40 9 11.4
10/14/21 49.5 1533 28.3 0629 4.6 14.5 E | 82 2129 31.2 6.9 84 14 11.3
10/13/21 47.1 1501 30.6 0001 5.0 17.5 WSW | 244 1608 28.2 10.3 62 20 11.3
10/12/21 36.7 1457 14.9 0529 8.2 40.7 NNE | 15 0012 20.5 23.9 89 26 11.3
10/11/21 35.9 0001 19.0 2359 17.4 42.2 NNE | 12 0834 23.0 18.6 95 69 11.3
10/10/21 56.8 1422 35.6 2357 7.5 34.6 S | 184 2341 34.8 0.0 78 25 11.3
10/9/21 47.7 1726 25.8 0550 4.6 16.6 NE | 50 2023 29.6 10.1 84 34 11.3
10/8/21 29.6 2316 26.7 2234 8.0 20.5 SW | 217 2311 26.8 4.0 96 55 11.3
10/7/21 42.5 1521 37.3 2359 9.4 26.1 WSW | 258 1547 37.4 0.0 93 82 11.4
10/6/21 47.5 1236 40.4 2224 15.7 41.1 SSW | 209 1302 38.1 0.0 82 42 11.4
10/5/21 56.0 1400 43.7 2335 13.0 34.4 SW | 217 2237 39.0 0.0 65 31 11.4
10/4/21 61.9 1327 51.6 2354 10.7 30.9 SW | 225 1452 40.4 0.0 33 22 11.4
10/3/21 66.8 1347 52.0 0741 4.5 17.9 SSW | 210 1537 39.7 0.0 34 15 11.4
10/2/21 55.8 2140 54.0 2331 2.7 5.9 SE | 143 2304 40.4 0.0 35 23 11.4
10/1/21 63.8 1434 45.0 0007 4.3 17.9 SSW | 210 1637 38.1 0.0 44 18 11.4
9/30/21 62.7 1701 38.6 0712 4.3 21.9 ENE | 75 0023 35.5 0.0 52 11 11.4
9/29/21 54.3 1549 33.4 0639 4.8 19.6 NE | 43 2216 33.3 0.0 66 24 11.3
9/28/21 54.2 1551 30.2 0446 8.4 51.6 SW | 215 0036 31.9 3.1 97 15 11.3
9/27/21 56.9 1328 38.3 2353 18.9 50.0 SW | 230 2248 36.8 0.0 95 17 11.4
9/26/21 63.6 1521 50.1 2349 18.6 39.4 SSW | 212 2119 42.1 0.0 50 18 11.4
9/25/21 66.5 1421 53.1 0445 11.2 26.3 SW | 217 2328 44.1 0.0 45 23 11.4
9/24/21 74.4 1512 49.4 0522 5.2 18.1 S | 186 1612 44.0 0.0 52 14 11.4
9/23/21 66.0 1419 46.3 0704 4.4 17.6 ENE | 68 2156 43.9 0.0 78 26 11.4
9/22/21 64.1 1516 51.1 2356 12.3 36.0 SW | 220 1104 43.3 0.0 63 26 11.4
9/21/21 67.9 1540 54.8 2143 8.3 23.9 SW | 235 1118 44.9 0.0 39 24 11.4
9/20/21 58.7 1651 37.9 0619 5.3 19.4 E | 79 1333 38.3 0.0 76 29 11.4
9/19/21 55.7 1719 37.9 0848 17.4 58.4 SSW | 211 0605 39.4 0.0 95 35 11.4
Max 74.4 - 54.8 - 19.2 58.4 - - 44.9 23.9 97 91 11.4
Avg - - - - 9.1 28.7 - - 35.8 - - - -
Min 29.6 - 14.9 - 2.7 5.9 - - 20.5 0.0 33 9 11.3
Calm: 0.0%
Calm: 0.0%